In Rescue
 
Open Full Screen Window  High Contrast Mode
Wind Gusting 00 knots
05
October 25, 2021 4:22 PM CDT
Weather Information
Wind Direction
  030 °
Wind Speed
  05 kt (6 mph)
Wind Gust
  00 kt (0 mph)
Altimeter
30.12 in
Visibility
10 SM
Temperature
12° C
54° F
Dewpoint
00° C
32° F
Humidity
44%
1hr Rain Fall
00.00 in.
24hr Rain Fall
00.00 in.
Sky Condition
Clear
VFR

METAR KONA 252122Z AUTO 03005KT 10SM CLR 12/00 A3012 RMK AO2

FAA Disclaimer: The data displayed is for advisory purposes only and is not to be used for flight planning or operations.